createdAt,value
2019-05-02T00:00:01.833Z,9.3
2019-05-02T00:05:01.495Z,9.3
2019-05-02T00:10:02.107Z,9.3
2019-05-02T00:15:03.362Z,9.3
2019-05-02T00:20:01.331Z,9.3
2019-05-02T00:25:01.667Z,9.3
2019-05-02T00:30:02.428Z,9.3
2019-05-02T00:35:01.610Z,9.2
2019-05-02T00:40:01.974Z,9.2
2019-05-02T00:45:01.929Z,9.2
2019-05-02T00:50:01.408Z,9.2
2019-05-02T00:55:02.132Z,9.2
2019-05-02T01:00:01.724Z,9.2
2019-05-02T01:05:03.170Z,9.2
2019-05-02T01:10:01.570Z,9.2
2019-05-02T01:15:03.174Z,9.1
2019-05-02T01:20:01.222Z,9.1
2019-05-02T01:25:01.607Z,9.1
2019-05-02T01:30:05.856Z,9.2
2019-05-02T01:35:01.415Z,9.2
2019-05-02T01:40:01.351Z,9.3
2019-05-02T01:45:01.673Z,9.3
2019-05-02T01:50:01.950Z,9.4
2019-05-02T01:55:01.726Z,9.4
2019-05-02T02:00:04.111Z,9.5
2019-05-02T02:05:01.657Z,9.5
2019-05-02T02:10:01.595Z,9.5
2019-05-02T02:15:01.371Z,9.5
2019-05-02T02:20:01.961Z,9.5
2019-05-02T02:25:02.885Z,9.5
2019-05-02T02:30:01.422Z,9.5
2019-05-02T02:35:03.348Z,9.4
2019-05-02T02:40:02.266Z,9.5
2019-05-02T02:45:01.564Z,9.5
2019-05-02T02:50:03.019Z,9.5
2019-05-02T02:55:01.298Z,9.5
2019-05-02T03:00:07.402Z,9.5
2019-05-02T03:05:01.198Z,9.5
2019-05-02T03:10:05.942Z,9.5
2019-05-02T03:15:01.799Z,9.5
2019-05-02T03:20:03.664Z,9.5
2019-05-02T03:25:01.392Z,9.6
2019-05-02T03:30:01.657Z,9.6
2019-05-02T03:35:02.140Z,9.6
2019-05-02T03:40:01.402Z,9.6
2019-05-02T03:45:04.844Z,9.6
2019-05-02T03:50:01.967Z,9.7
2019-05-02T03:55:01.263Z,9.7
2019-05-02T04:00:01.931Z,9.8
2019-05-02T04:05:02.906Z,9.8
2019-05-02T04:10:01.848Z,9.8
2019-05-02T04:15:01.959Z,9.8
2019-05-02T04:20:09.184Z,9.8
2019-05-02T04:25:05.978Z,9.8
2019-05-02T04:30:09.563Z,9.8
2019-05-02T04:35:01.419Z,9.8
2019-05-02T04:40:03.426Z,9.8
2019-05-02T04:45:17.259Z,9.8
2019-05-02T04:50:07.442Z,9.8
2019-05-02T04:55:14.191Z,9.8
2019-05-02T05:00:06.076Z,9.8
2019-05-02T05:05:02.195Z,9.8
2019-05-02T05:10:03.224Z,9.9
2019-05-02T05:15:01.996Z,9.9
2019-05-02T05:20:10.335Z,9.9
2019-05-02T05:25:01.696Z,9.9
2019-05-02T05:30:07.805Z,10
2019-05-02T05:35:03.170Z,10
2019-05-02T05:40:01.242Z,10.1
2019-05-02T05:45:03.641Z,10.1
2019-05-02T05:50:02.068Z,10.1
2019-05-02T05:55:04.685Z,10.2
2019-05-02T06:00:03.654Z,10.2
2019-05-02T06:05:03.638Z,10.2
2019-05-02T06:10:02.162Z,10.2
2019-05-02T06:15:03.587Z,10.2
2019-05-02T06:20:01.873Z,10.3
2019-05-02T06:25:02.176Z,10.3
2019-05-02T06:30:01.408Z,10.3
2019-05-02T06:35:01.792Z,10.3
2019-05-02T06:40:03.034Z,10.4
2019-05-02T06:45:01.552Z,10.4
2019-05-02T06:50:02.701Z,10.4
2019-05-02T06:55:01.710Z,10.3
2019-05-02T07:00:01.779Z,10.3
2019-05-02T07:05:01.914Z,10.3
2019-05-02T07:10:01.237Z,10.3
2019-05-02T07:15:03.810Z,10.4
2019-05-02T07:20:03.773Z,10.4
2019-05-02T07:25:06.709Z,10.4
2019-05-02T07:30:01.467Z,10.5
2019-05-02T07:35:02.180Z,10.5
2019-05-02T07:40:01.490Z,10.4
2019-05-02T07:45:04.244Z,10.5
2019-05-02T07:50:05.204Z,10.6
2019-05-02T07:55:02.525Z,10.5
2019-05-02T08:00:02.629Z,10.5
2019-05-02T08:05:01.347Z,10.4
2019-05-02T08:10:02.077Z,10.4
2019-05-02T08:15:01.248Z,10.6
2019-05-02T08:20:04.541Z,10.9
2019-05-02T08:25:02.061Z,11
2019-05-02T08:30:04.221Z,10.9
2019-05-02T08:35:01.787Z,10.7
2019-05-02T08:40:05.287Z,10.7
2019-05-02T08:45:03.127Z,10.7
2019-05-02T08:50:01.900Z,10.6
2019-05-02T08:55:04.282Z,10.7
2019-05-02T09:00:01.702Z,10.9
2019-05-02T09:05:04.487Z,11.2
2019-05-02T09:10:05.623Z,11.5
2019-05-02T09:15:02.691Z,11.8
2019-05-02T09:20:05.019Z,11.9
2019-05-02T09:25:02.291Z,12
2019-05-02T09:30:02.703Z,11.7
2019-05-02T09:35:05.993Z,11.4
2019-05-02T09:40:03.827Z,11.1
2019-05-02T09:45:03.070Z,10.9
2019-05-02T09:50:02.738Z,11
2019-05-02T09:55:02.801Z,11.3
2019-05-02T10:00:02.329Z,11.6
2019-05-02T10:05:02.000Z,11.8
2019-05-02T10:10:03.013Z,11.7
2019-05-02T10:15:02.302Z,11.6
2019-05-02T10:20:01.988Z,11.5
2019-05-02T10:25:02.522Z,11.3
2019-05-02T10:30:07.835Z,11.3
2019-05-02T10:35:02.225Z,11.3
2019-05-02T10:40:02.960Z,11.2
2019-05-02T10:45:02.736Z,11.3
2019-05-02T10:50:02.243Z,11.2
2019-05-02T10:55:02.600Z,11.1
2019-05-02T11:00:03.186Z,11.1
2019-05-02T11:05:02.664Z,11
2019-05-02T11:10:02.930Z,10.9
2019-05-02T11:15:02.264Z,10.8
2019-05-02T11:20:02.058Z,10.9
2019-05-02T11:25:02.285Z,10.9
2019-05-02T11:30:02.683Z,10.7
2019-05-02T11:35:02.915Z,10.6
2019-05-02T11:40:05.409Z,10.6
2019-05-02T11:45:02.629Z,10.5
2019-05-02T11:50:02.380Z,10.5
2019-05-02T11:55:02.017Z,10.5
2019-05-02T12:00:04.774Z,10.4
2019-05-02T12:05:02.084Z,10.5
2019-05-02T12:10:04.148Z,10.5
2019-05-02T12:15:02.486Z,10.6
2019-05-02T12:20:02.146Z,10.4
2019-05-02T12:25:02.958Z,10.4
2019-05-02T12:30:03.243Z,10.4
2019-05-02T12:35:02.421Z,10.4
2019-05-02T12:40:02.653Z,10.4
2019-05-02T12:45:02.820Z,10.4
2019-05-02T12:50:03.084Z,10.4
2019-05-02T12:55:02.209Z,10.3
2019-05-02T13:00:02.123Z,10.4
2019-05-02T13:05:02.493Z,10.3
2019-05-02T13:10:02.541Z,10.4
2019-05-02T13:15:02.247Z,10.3
2019-05-02T13:20:03.853Z,10.3
2019-05-02T13:25:02.492Z,10.3
2019-05-02T13:30:03.338Z,10.3
2019-05-02T13:35:02.194Z,10.4
2019-05-02T13:40:02.499Z,10.4
2019-05-02T13:45:02.280Z,10.4
2019-05-02T13:50:03.825Z,10.4
2019-05-02T13:55:01.921Z,10.5
2019-05-02T14:00:02.352Z,10.5
2019-05-02T14:05:02.257Z,10.5
2019-05-02T14:10:02.422Z,10.5
2019-05-02T14:15:02.994Z,10.5
2019-05-02T14:20:10.157Z,10.6
2019-05-02T14:25:01.852Z,10.6
2019-05-02T14:30:02.400Z,10.5
2019-05-02T14:35:02.536Z,10.6
2019-05-02T14:40:02.254Z,10.6
2019-05-02T14:45:10.610Z,10.6
2019-05-02T14:50:04.826Z,10.5
2019-05-02T14:55:02.910Z,10.5
2019-05-02T15:00:03.229Z,10.5
2019-05-02T15:05:02.129Z,10.5
2019-05-02T15:10:05.403Z,10.5
2019-05-02T15:15:02.471Z,10.3
2019-05-02T15:20:02.785Z,10.2
2019-05-02T15:25:02.659Z,10.1
2019-05-02T15:30:06.648Z,10.1
2019-05-02T15:35:02.364Z,10.1
2019-05-02T15:45:05.524Z,10.1
2019-05-02T15:50:02.972Z,10.1
2019-05-02T15:55:03.985Z,10.1
2019-05-02T16:00:01.786Z,10.1
2019-05-02T16:05:05.268Z,10.1
2019-05-02T16:10:03.819Z,10
2019-05-02T16:15:02.787Z,10
2019-05-02T16:20:07.506Z,9.9
2019-05-02T16:25:01.752Z,9.9
2019-05-02T16:30:04.457Z,9.9
2019-05-02T16:35:03.692Z,10
2019-05-02T16:40:02.504Z,10
2019-05-02T16:45:02.570Z,9.9
2019-05-02T16:50:02.515Z,10
2019-05-02T16:55:02.859Z,10
2019-05-02T17:00:05.927Z,9.9
2019-05-02T17:05:07.984Z,9.9
2019-05-02T17:10:02.752Z,9.9
2019-05-02T17:15:01.950Z,9.9
2019-05-02T17:20:02.513Z,10
2019-05-02T17:25:05.785Z,10
2019-05-02T17:30:03.711Z,10
2019-05-02T17:35:02.478Z,10
2019-05-02T17:40:01.854Z,10
2019-05-02T17:45:03.811Z,10
2019-05-02T17:50:02.193Z,10
2019-05-02T17:55:03.081Z,10
2019-05-02T18:00:02.807Z,9.9
2019-05-02T18:05:02.746Z,9.8
2019-05-02T18:10:05.723Z,9.7
2019-05-02T18:15:03.265Z,9.7
2019-05-02T18:20:05.778Z,9.6
2019-05-02T18:25:02.224Z,9.6
2019-05-02T18:30:02.219Z,9.6
2019-05-02T18:35:04.805Z,9.5
2019-05-02T18:40:03.016Z,9.4
2019-05-02T18:45:01.792Z,9.4
2019-05-02T18:50:06.030Z,9.3
2019-05-02T18:55:01.653Z,9.2
2019-05-02T19:00:02.510Z,9.1
2019-05-02T19:05:01.974Z,9
2019-05-02T19:10:04.189Z,9.1
2019-05-02T19:15:03.011Z,9
2019-05-02T19:20:06.111Z,8.9
2019-05-02T19:25:03.720Z,8.8
2019-05-02T19:30:02.916Z,8.7
2019-05-02T19:35:03.111Z,8.6
2019-05-02T19:40:01.777Z,8.6
2019-05-02T19:45:11.098Z,8.6
2019-05-02T19:50:03.022Z,8.5
2019-05-02T19:55:01.320Z,8.5
2019-05-02T20:00:02.577Z,8.4
2019-05-02T20:05:02.797Z,8.3
2019-05-02T20:10:01.941Z,8.1
2019-05-02T20:15:01.203Z,8
2019-05-02T20:20:03.297Z,7.9
2019-05-02T20:25:03.726Z,7.8
2019-05-02T20:30:02.927Z,7.7
2019-05-02T20:35:02.058Z,7.6
2019-05-02T20:40:02.739Z,7.4
2019-05-02T20:45:02.365Z,7.3
2019-05-02T20:50:02.601Z,7.2
2019-05-02T20:55:01.795Z,7.1
2019-05-02T21:00:01.926Z,7
2019-05-02T21:05:02.697Z,7
2019-05-02T21:10:02.220Z,7
2019-05-02T21:15:02.533Z,6.9
2019-05-02T21:20:01.997Z,6.8
2019-05-02T21:25:02.430Z,6.7
2019-05-02T21:30:01.882Z,6.7
2019-05-02T21:35:02.739Z,6.6
2019-05-02T21:40:02.732Z,6.5
2019-05-02T21:45:02.396Z,6.4
2019-05-02T21:50:02.332Z,6.4
2019-05-02T21:55:02.379Z,6.4
2019-05-02T22:00:02.444Z,6.3
2019-05-02T22:05:02.191Z,6.2
2019-05-02T22:10:03.001Z,6.2
2019-05-02T22:15:02.313Z,6.1
2019-05-02T22:20:02.033Z,6.1
2019-05-02T22:25:02.201Z,6.1
2019-05-02T22:30:02.149Z,6
2019-05-02T22:35:02.020Z,6
2019-05-02T22:40:03.836Z,6
2019-05-02T22:45:04.314Z,6
2019-05-02T22:50:01.575Z,5.9
2019-05-02T22:55:02.958Z,5.9
2019-05-02T23:00:02.040Z,5.8
2019-05-02T23:05:02.178Z,5.7
2019-05-02T23:10:02.239Z,5.7
2019-05-02T23:15:02.114Z,5.7
2019-05-02T23:20:02.266Z,5.6
2019-05-02T23:25:02.864Z,5.6
2019-05-02T23:30:02.844Z,5.6
2019-05-02T23:35:02.018Z,5.5
2019-05-02T23:40:02.105Z,5.5
2019-05-02T23:45:02.780Z,5.5
2019-05-02T23:50:02.780Z,5.5
2019-05-02T23:55:02.926Z,5.5
